createdAt,value
2022-08-07T17:58:46.538Z,99197.53
2022-08-07T18:01:34.802Z,99197.03
2022-08-07T18:04:24.656Z,99189.81
2022-08-07T18:07:20.881Z,99205.34
2022-08-07T18:10:05.775Z,99191.44
2022-08-07T18:12:56.123Z,99197.13
2022-08-07T18:15:32.658Z,99199.72
2022-08-07T18:18:45.476Z,99200.78
2022-08-07T18:21:37.319Z,99207.13
2022-08-07T18:24:02.064Z,99212.91
2022-08-07T18:27:09.899Z,99213.94
2022-08-07T18:30:06.279Z,99208.72
2022-08-07T18:33:38.891Z,99206.06
2022-08-07T18:36:33.866Z,99212.84
2022-08-07T18:40:08.670Z,99213.31
2022-08-07T18:42:22.200Z,99217.19
2022-08-07T18:45:43.342Z,99212.66
2022-08-07T18:48:01.094Z,99208.66
2022-08-07T18:51:03.018Z,99223.03
2022-08-07T18:54:05.687Z,99225.03
2022-08-07T18:57:29.871Z,99228.28
2022-08-07T19:00:04.401Z,99224.16
2022-08-07T19:03:00.239Z,99222.16
2022-08-07T19:06:02.385Z,99227.00
2022-08-07T19:08:30.108Z,99231.66
2022-08-07T19:11:35.072Z,99229.13
2022-08-07T19:14:11.650Z,99230.06
2022-08-07T19:17:06.388Z,99224.94
2022-08-07T19:19:48.830Z,99226.81
2022-08-07T19:22:31.395Z,99228.69
2022-08-07T19:25:05.770Z,99237.41
2022-08-07T19:30:56.778Z,99234.63
2022-08-07T19:31:00.843Z,99248.41
2022-08-07T19:33:33.496Z,99239.00
2022-08-07T19:36:05.240Z,99242.59
2022-08-07T19:38:53.273Z,99244.81
2022-08-07T19:41:44.465Z,99254.69
2022-08-07T19:44:21.116Z,99251.59
2022-08-07T19:46:57.561Z,99253.63
2022-08-07T19:49:56.715Z,99259.31
2022-08-07T19:52:22.610Z,99252.63
2022-08-07T19:54:55.756Z,99256.66
2022-08-07T19:58:00.143Z,99261.69
2022-08-07T20:00:28.957Z,99267.31
2022-08-07T20:03:02.963Z,99270.97
2022-08-07T20:06:00.071Z,99266.59
2022-08-07T20:08:28.441Z,99268.34
2022-08-07T20:11:09.997Z,99268.31
2022-08-07T20:13:43.443Z,99275.59
2022-08-07T20:16:35.754Z,99268.97
2022-08-07T20:19:10.584Z,99272.50
2022-08-07T20:21:46.853Z,99264.34
2022-08-07T20:24:20.632Z,99272.50
2022-08-07T20:26:54.736Z,99274.41
2022-08-07T20:29:49.051Z,99277.88
2022-08-07T20:32:22.305Z,99280.13
2022-08-07T20:34:52.785Z,99277.84
2022-08-07T20:37:29.700Z,99282.97
2022-08-07T20:40:31.114Z,99294.19
2022-08-07T20:42:57.929Z,99299.41
2022-08-07T20:45:32.978Z,99290.38
2022-08-07T20:48:25.809Z,99296.41
2022-08-07T20:51:00.640Z,99291.16
2022-08-07T20:54:02.967Z,99292.72
2022-08-07T20:56:26.891Z,99289.34
2022-08-07T20:59:02.498Z,99289.50
2022-08-07T21:01:45.851Z,99284.84
2022-08-07T21:04:27.946Z,99282.66
2022-08-07T21:07:04.490Z,99283.00
2022-08-07T21:09:53.245Z,99293.38
2022-08-07T21:12:31.641Z,99292.09
2022-08-07T21:15:07.217Z,99301.69
2022-08-07T21:18:17.097Z,99302.28
2022-08-07T21:20:30.066Z,99297.03
2022-08-07T21:23:07.414Z,99303.94
2022-08-07T21:26:01.368Z,99310.50
2022-08-07T21:28:50.193Z,99305.31
2022-08-07T21:32:41.841Z,99306.69
2022-08-07T21:34:31.766Z,99300.91
2022-08-07T21:37:08.350Z,99300.56
2022-08-07T21:39:51.710Z,99299.31
2022-08-07T21:42:42.721Z,99300.91
2022-08-07T21:46:10.269Z,99290.84
2022-08-07T21:48:28.787Z,99299.34
2022-08-07T21:51:20.456Z,99290.69
2022-08-07T21:54:00.196Z,99293.41
2022-08-07T21:56:46.955Z,99294.22
2022-08-07T21:59:36.223Z,99297.69
2022-08-07T22:02:28.519Z,99292.41
2022-08-07T22:05:03.905Z,99291.44
2022-08-07T22:07:58.921Z,99293.47
2022-08-07T22:10:33.627Z,99294.53
2022-08-07T22:13:08.990Z,99298.28
2022-08-07T22:16:42.409Z,99297.78
2022-08-07T22:18:38.434Z,99303.88
2022-08-07T22:21:19.275Z,99309.44
2022-08-07T22:23:56.213Z,99308.84
2022-08-07T22:26:31.375Z,99305.13
2022-08-07T22:29:08.908Z,99300.41
2022-08-07T22:32:03.466Z,99311.31
2022-08-07T22:34:52.883Z,99307.78
2022-08-07T22:38:04.490Z,99305.56
2022-08-07T22:40:31.016Z,99308.47
2022-08-07T22:43:08.860Z,99308.00
2022-08-07T22:46:40.452Z,99308.53
2022-08-07T22:48:56.154Z,99304.47
2022-08-07T22:51:51.897Z,99305.91
2022-08-07T22:55:17.331Z,99312.34
2022-08-07T22:58:05.530Z,99303.28
2022-08-07T23:00:41.825Z,99302.72
2022-08-07T23:03:57.885Z,99298.44
2022-08-07T23:06:56.098Z,99297.59
2022-08-07T23:10:03.848Z,99289.19
2022-08-07T23:12:50.553Z,99289.78
2022-08-07T23:16:04.926Z,99290.34
2022-08-07T23:18:27.565Z,99296.03
2022-08-07T23:21:16.294Z,99295.16
2022-08-07T23:24:17.467Z,99291.50
2022-08-07T23:26:59.395Z,99297.03
2022-08-07T23:30:37.889Z,99294.19
2022-08-07T23:34:20.818Z,99289.66
2022-08-07T23:36:07.806Z,99296.31
2022-08-07T23:38:56.265Z,99301.72
2022-08-07T23:41:47.538Z,99305.28
2022-08-07T23:44:41.868Z,99302.72
2022-08-07T23:47:46.453Z,99305.84
2022-08-07T23:50:38.108Z,99300.59
2022-08-07T23:53:19.637Z,99298.75
2022-08-07T23:55:57.289Z,99307.91
2022-08-07T23:58:37.525Z,99308.34
